sensor_id;sensor_type;location;lat;lon;timestamp;P1;durP1;ratioP1;P2;durP2;ratioP2
72319;SDS011;60269;52.502;16.732;2023-04-06T00:02:43;16.30;;;5.10;;
72319;SDS011;60269;52.502;16.732;2023-04-06T00:06:15;16.35;;;5.93;;
72319;SDS011;60269;52.502;16.732;2023-04-06T00:09:47;19.13;;;5.30;;
72319;SDS011;60269;52.502;16.732;2023-04-06T00:13:20;17.40;;;5.18;;
72319;SDS011;60269;52.502;16.732;2023-04-06T00:16:52;15.38;;;5.07;;
72319;SDS011;60269;52.502;16.732;2023-04-06T00:20:24;14.73;;;4.70;;
72319;SDS011;60269;52.502;16.732;2023-04-06T00:23:56;22.88;;;6.00;;
72319;SDS011;60269;52.502;16.732;2023-04-06T00:27:28;17.20;;;4.65;;
72319;SDS011;60269;52.502;16.732;2023-04-06T00:31:01;19.07;;;6.30;;
72319;SDS011;60269;52.502;16.732;2023-04-06T00:34:33;18.08;;;6.28;;
72319;SDS011;60269;52.502;16.732;2023-04-06T00:38:06;15.65;;;5.18;;
72319;SDS011;60269;52.502;16.732;2023-04-06T00:41:38;14.60;;;6.10;;
72319;SDS011;60269;52.502;16.732;2023-04-06T00:45:12;15.97;;;5.43;;
72319;SDS011;60269;52.502;16.732;2023-04-06T00:48:44;19.80;;;5.95;;
72319;SDS011;60269;52.502;16.732;2023-04-06T00:52:17;20.77;;;6.45;;
72319;SDS011;60269;52.502;16.732;2023-04-06T00:55:51;15.50;;;5.77;;
72319;SDS011;60269;52.502;16.732;2023-04-06T00:59:23;24.27;;;6.85;;
72319;SDS011;60269;52.502;16.732;2023-04-06T01:02:55;20.58;;;7.07;;
72319;SDS011;60269;52.502;16.732;2023-04-06T01:06:28;18.17;;;7.37;;
72319;SDS011;60269;52.502;16.732;2023-04-06T01:10:00;16.70;;;5.85;;
72319;SDS011;60269;52.502;16.732;2023-04-06T01:13:34;21.27;;;6.82;;
72319;SDS011;60269;52.502;16.732;2023-04-06T01:17:06;22.33;;;7.97;;
72319;SDS011;60269;52.502;16.732;2023-04-06T01:20:38;21.77;;;6.30;;
72319;SDS011;60269;52.502;16.732;2023-04-06T01:24:10;19.73;;;6.72;;
72319;SDS011;60269;52.502;16.732;2023-04-06T01:27:43;25.20;;;7.45;;
72319;SDS011;60269;52.502;16.732;2023-04-06T01:31:15;23.50;;;7.00;;
72319;SDS011;60269;52.502;16.732;2023-04-06T01:34:47;20.83;;;6.03;;
72319;SDS011;60269;52.502;16.732;2023-04-06T01:38:19;20.42;;;6.57;;
72319;SDS011;60269;52.502;16.732;2023-04-06T01:41:51;15.30;;;6.37;;
72319;SDS011;60269;52.502;16.732;2023-04-06T01:45:23;22.75;;;7.85;;
72319;SDS011;60269;52.502;16.732;2023-04-06T01:48:55;18.98;;;7.38;;
72319;SDS011;60269;52.502;16.732;2023-04-06T01:52:27;20.90;;;7.13;;
72319;SDS011;60269;52.502;16.732;2023-04-06T01:56:00;19.10;;;7.10;;
72319;SDS011;60269;52.502;16.732;2023-04-06T01:59:32;17.67;;;6.05;;
72319;SDS011;60269;52.502;16.732;2023-04-06T02:03:04;20.38;;;6.15;;
72319;SDS011;60269;52.502;16.732;2023-04-06T02:06:37;20.00;;;7.37;;
72319;SDS011;60269;52.502;16.732;2023-04-06T02:10:12;27.20;;;7.90;;
72319;SDS011;60269;52.502;16.732;2023-04-06T02:13:45;17.45;;;7.07;;
72319;SDS011;60269;52.502;16.732;2023-04-06T02:17:17;25.80;;;7.43;;
72319;SDS011;60269;52.502;16.732;2023-04-06T02:20:49;16.77;;;6.75;;
72319;SDS011;60269;52.502;16.732;2023-04-06T02:24:21;16.98;;;6.15;;
72319;SDS011;60269;52.502;16.732;2023-04-06T02:27:53;22.83;;;8.15;;
72319;SDS011;60269;52.502;16.732;2023-04-06T02:31:26;21.90;;;7.63;;
72319;SDS011;60269;52.502;16.732;2023-04-06T02:34:58;23.45;;;7.68;;
72319;SDS011;60269;52.502;16.732;2023-04-06T02:38:29;18.95;;;6.90;;
72319;SDS011;60269;52.502;16.732;2023-04-06T02:42:02;21.43;;;7.60;;
72319;SDS011;60269;52.502;16.732;2023-04-06T02:45:34;26.45;;;8.93;;
72319;SDS011;60269;52.502;16.732;2023-04-06T02:49:06;17.45;;;6.95;;
72319;SDS011;60269;52.502;16.732;2023-04-06T02:52:38;19.90;;;7.30;;
72319;SDS011;60269;52.502;16.732;2023-04-06T02:56:10;18.92;;;7.70;;
72319;SDS011;60269;52.502;16.732;2023-04-06T02:59:42;24.85;;;8.65;;
72319;SDS011;60269;52.502;16.732;2023-04-06T03:03:15;24.48;;;8.65;;
72319;SDS011;60269;52.502;16.732;2023-04-06T03:06:47;19.03;;;7.30;;
72319;SDS011;60269;52.502;16.732;2023-04-06T03:10:19;18.65;;;7.05;;
72319;SDS011;60269;52.502;16.732;2023-04-06T03:13:50;19.42;;;6.65;;
72319;SDS011;60269;52.502;16.732;2023-04-06T03:17:22;24.00;;;8.10;;
72319;SDS011;60269;52.502;16.732;2023-04-06T03:20:54;26.33;;;9.00;;
72319;SDS011;60269;52.502;16.732;2023-04-06T03:24:27;26.85;;;8.90;;
72319;SDS011;60269;52.502;16.732;2023-04-06T03:27:59;20.83;;;8.57;;
72319;SDS011;60269;52.502;16.732;2023-04-06T03:31:31;20.95;;;7.65;;
72319;SDS011;60269;52.502;16.732;2023-04-06T03:35:03;28.15;;;10.02;;
72319;SDS011;60269;52.502;16.732;2023-04-06T03:38:35;22.90;;;8.48;;
72319;SDS011;60269;52.502;16.732;2023-04-06T03:42:10;24.73;;;9.23;;
72319;SDS011;60269;52.502;16.732;2023-04-06T03:45:42;21.95;;;8.90;;
72319;SDS011;60269;52.502;16.732;2023-04-06T03:49:14;21.27;;;8.70;;
72319;SDS011;60269;52.502;16.732;2023-04-06T03:52:46;25.20;;;9.73;;
72319;SDS011;60269;52.502;16.732;2023-04-06T03:56:19;28.77;;;9.15;;
72319;SDS011;60269;52.502;16.732;2023-04-06T03:59:51;26.73;;;8.98;;
72319;SDS011;60269;52.502;16.732;2023-04-06T04:03:24;18.70;;;7.40;;
72319;SDS011;60269;52.502;16.732;2023-04-06T04:06:58;20.80;;;7.25;;
72319;SDS011;60269;52.502;16.732;2023-04-06T04:10:31;27.92;;;9.43;;
72319;SDS011;60269;52.502;16.732;2023-04-06T04:14:06;24.75;;;8.77;;
72319;SDS011;60269;52.502;16.732;2023-04-06T04:17:42;22.27;;;8.43;;
72319;SDS011;60269;52.502;16.732;2023-04-06T04:21:18;20.30;;;7.72;;
72319;SDS011;60269;52.502;16.732;2023-04-06T04:24:50;21.40;;;7.47;;
72319;SDS011;60269;52.502;16.732;2023-04-06T04:28:22;22.87;;;9.27;;
72319;SDS011;60269;52.502;16.732;2023-04-06T04:31:54;29.02;;;9.23;;
72319;SDS011;60269;52.502;16.732;2023-04-06T04:35:27;18.70;;;7.93;;
72319;SDS011;60269;52.502;16.732;2023-04-06T04:39:00;27.97;;;8.90;;
72319;SDS011;60269;52.502;16.732;2023-04-06T04:42:33;27.55;;;9.45;;
72319;SDS011;60269;52.502;16.732;2023-04-06T04:46:05;24.15;;;9.18;;
72319;SDS011;60269;52.502;16.732;2023-04-06T04:49:38;26.92;;;8.90;;
72319;SDS011;60269;52.502;16.732;2023-04-06T04:53:10;31.47;;;11.40;;
72319;SDS011;60269;52.502;16.732;2023-04-06T04:56:42;30.58;;;10.35;;
72319;SDS011;60269;52.502;16.732;2023-04-06T05:00:14;26.95;;;10.45;;
72319;SDS011;60269;52.502;16.732;2023-04-06T05:03:47;33.63;;;11.07;;
72319;SDS011;60269;52.502;16.732;2023-04-06T05:07:19;26.10;;;10.00;;
72319;SDS011;60269;52.502;16.732;2023-04-06T05:10:52;27.45;;;11.20;;
72319;SDS011;60269;52.502;16.732;2023-04-06T05:14:27;33.23;;;13.17;;
72319;SDS011;60269;52.502;16.732;2023-04-06T05:17:59;37.58;;;15.32;;
72319;SDS011;60269;52.502;16.732;2023-04-06T05:21:32;34.90;;;13.15;;
72319;SDS011;60269;52.502;16.732;2023-04-06T05:25:04;36.08;;;12.30;;
72319;SDS011;60269;52.502;16.732;2023-04-06T05:28:36;48.50;;;17.00;;
72319;SDS011;60269;52.502;16.732;2023-04-06T05:32:08;44.50;;;15.68;;
72319;SDS011;60269;52.502;16.732;2023-04-06T05:35:40;31.95;;;13.57;;
72319;SDS011;60269;52.502;16.732;2023-04-06T05:39:12;34.70;;;14.10;;
72319;SDS011;60269;52.502;16.732;2023-04-06T05:42:44;34.90;;;14.05;;
72319;SDS011;60269;52.502;16.732;2023-04-06T05:46:16;41.17;;;13.15;;
72319;SDS011;60269;52.502;16.732;2023-04-06T05:49:48;26.00;;;12.27;;
72319;SDS011;60269;52.502;16.732;2023-04-06T05:53:20;33.67;;;11.93;;
72319;SDS011;60269;52.502;16.732;2023-04-06T05:56:52;28.35;;;11.38;;
72319;SDS011;60269;52.502;16.732;2023-04-06T06:00:24;39.67;;;14.57;;
72319;SDS011;60269;52.502;16.732;2023-04-06T06:03:57;32.60;;;14.10;;
72319;SDS011;60269;52.502;16.732;2023-04-06T06:07:29;33.97;;;14.02;;
72319;SDS011;60269;52.502;16.732;2023-04-06T06:11:01;31.35;;;12.73;;
72319;SDS011;60269;52.502;16.732;2023-04-06T06:14:33;28.47;;;12.00;;
72319;SDS011;60269;52.502;16.732;2023-04-06T06:18:05;34.67;;;13.95;;
72319;SDS011;60269;52.502;16.732;2023-04-06T06:21:38;24.48;;;11.70;;
72319;SDS011;60269;52.502;16.732;2023-04-06T06:25:09;25.47;;;10.93;;
72319;SDS011;60269;52.502;16.732;2023-04-06T06:28:42;26.40;;;10.93;;
72319;SDS011;60269;52.502;16.732;2023-04-06T06:32:14;23.30;;;11.00;;
72319;SDS011;60269;52.502;16.732;2023-04-06T06:35:46;25.48;;;11.32;;
72319;SDS011;60269;52.502;16.732;2023-04-06T06:39:18;28.43;;;10.57;;
72319;SDS011;60269;52.502;16.732;2023-04-06T06:42:50;31.25;;;11.52;;
72319;SDS011;60269;52.502;16.732;2023-04-06T06:46:22;28.10;;;10.90;;
72319;SDS011;60269;52.502;16.732;2023-04-06T06:49:55;30.93;;;12.40;;
72319;SDS011;60269;52.502;16.732;2023-04-06T06:53:27;27.00;;;11.75;;
72319;SDS011;60269;52.502;16.732;2023-04-06T06:56:59;21.63;;;10.05;;
72319;SDS011;60269;52.502;16.732;2023-04-06T07:00:32;28.30;;;11.63;;
72319;SDS011;60269;52.502;16.732;2023-04-06T07:04:04;21.30;;;9.90;;
72319;SDS011;60269;52.502;16.732;2023-04-06T07:07:36;27.65;;;10.75;;
72319;SDS011;60269;52.502;16.732;2023-04-06T07:11:08;27.83;;;10.43;;
72319;SDS011;60269;52.502;16.732;2023-04-06T07:14:40;26.07;;;10.20;;
72319;SDS011;60269;52.502;16.732;2023-04-06T07:18:13;27.23;;;10.15;;
72319;SDS011;60269;52.502;16.732;2023-04-06T07:21:45;22.63;;;10.00;;
72319;SDS011;60269;52.502;16.732;2023-04-06T07:25:17;24.33;;;9.73;;
72319;SDS011;60269;52.502;16.732;2023-04-06T07:28:49;22.33;;;8.90;;
72319;SDS011;60269;52.502;16.732;2023-04-06T07:32:21;18.38;;;8.15;;
72319;SDS011;60269;52.502;16.732;2023-04-06T07:35:53;24.13;;;9.13;;
72319;SDS011;60269;52.502;16.732;2023-04-06T07:39:25;20.97;;;8.33;;
72319;SDS011;60269;52.502;16.732;2023-04-06T07:42:58;21.60;;;8.68;;
72319;SDS011;60269;52.502;16.732;2023-04-06T07:46:30;16.15;;;6.53;;
72319;SDS011;60269;52.502;16.732;2023-04-06T07:50:03;16.17;;;6.63;;
72319;SDS011;60269;52.502;16.732;2023-04-06T07:53:35;16.87;;;6.80;;
72319;SDS011;60269;52.502;16.732;2023-04-06T07:57:08;13.45;;;6.20;;
72319;SDS011;60269;52.502;16.732;2023-04-06T08:00:40;15.27;;;6.47;;
72319;SDS011;60269;52.502;16.732;2023-04-06T08:04:12;14.77;;;6.73;;
72319;SDS011;60269;52.502;16.732;2023-04-06T08:07:44;16.37;;;6.27;;
72319;SDS011;60269;52.502;16.732;2023-04-06T08:11:19;14.75;;;6.05;;
72319;SDS011;60269;52.502;16.732;2023-04-06T08:14:51;15.15;;;5.22;;
72319;SDS011;60269;52.502;16.732;2023-04-06T08:18:23;15.47;;;5.90;;
72319;SDS011;60269;52.502;16.732;2023-04-06T08:21:55;14.97;;;6.17;;
72319;SDS011;60269;52.502;16.732;2023-04-06T08:25:27;13.02;;;5.30;;
72319;SDS011;60269;52.502;16.732;2023-04-06T08:28:59;14.32;;;5.20;;
72319;SDS011;60269;52.502;16.732;2023-04-06T08:32:31;11.93;;;5.00;;
72319;SDS011;60269;52.502;16.732;2023-04-06T08:36:10;16.47;;;5.00;;
72319;SDS011;60269;52.502;16.732;2023-04-06T08:39:43;14.05;;;4.45;;
72319;SDS011;60269;52.502;16.732;2023-04-06T08:43:15;12.63;;;4.13;;
72319;SDS011;60269;52.502;16.732;2023-04-06T08:46:50;13.52;;;4.47;;
72319;SDS011;60269;52.502;16.732;2023-04-06T08:50:24;11.83;;;3.97;;
72319;SDS011;60269;52.502;16.732;2023-04-06T08:53:57;10.02;;;3.92;;
72319;SDS011;60269;52.502;16.732;2023-04-06T08:57:30;10.55;;;3.70;;
72319;SDS011;60269;52.502;16.732;2023-04-06T09:01:05;13.20;;;4.13;;
72319;SDS011;60269;52.502;16.732;2023-04-06T09:04:40;10.50;;;3.97;;
72319;SDS011;60269;52.502;16.732;2023-04-06T09:08:12;12.35;;;3.53;;
72319;SDS011;60269;52.502;16.732;2023-04-06T09:11:45;12.05;;;4.28;;
72319;SDS011;60269;52.502;16.732;2023-04-06T09:15:20;12.10;;;4.22;;
72319;SDS011;60269;52.502;16.732;2023-04-06T09:19:03;8.83;;;3.80;;
72319;SDS011;60269;52.502;16.732;2023-04-06T09:22:37;9.18;;;3.13;;
72319;SDS011;60269;52.502;16.732;2023-04-06T09:29:46;7.97;;;2.85;;
72319;SDS011;60269;52.502;16.732;2023-04-06T09:33:22;6.93;;;2.57;;
72319;SDS011;60269;52.502;16.732;2023-04-06T09:36:55;9.33;;;2.93;;
72319;SDS011;60269;52.502;16.732;2023-04-06T09:40:27;8.90;;;2.70;;
72319;SDS011;60269;52.502;16.732;2023-04-06T09:44:04;8.45;;;2.75;;
72319;SDS011;60269;52.502;16.732;2023-04-06T09:47:40;9.23;;;3.13;;
72319;SDS011;60269;52.502;16.732;2023-04-06T09:51:15;8.10;;;2.83;;
72319;SDS011;60269;52.502;16.732;2023-04-06T09:54:50;6.75;;;1.98;;
72319;SDS011;60269;52.502;16.732;2023-04-06T09:58:23;8.68;;;2.78;;
72319;SDS011;60269;52.502;16.732;2023-04-06T10:01:58;9.70;;;2.67;;
72319;SDS011;60269;52.502;16.732;2023-04-06T10:05:33;8.20;;;2.80;;
72319;SDS011;60269;52.502;16.732;2023-04-06T10:09:12;7.65;;;2.10;;
72319;SDS011;60269;52.502;16.732;2023-04-06T10:12:45;6.63;;;2.15;;
72319;SDS011;60269;52.502;16.732;2023-04-06T10:16:19;8.47;;;3.07;;
72319;SDS011;60269;52.502;16.732;2023-04-06T10:19:53;8.00;;;2.53;;
72319;SDS011;60269;52.502;16.732;2023-04-06T10:23:45;9.48;;;2.58;;
72319;SDS011;60269;52.502;16.732;2023-04-06T10:27:29;7.55;;;2.67;;
72319;SDS011;60269;52.502;16.732;2023-04-06T10:31:04;8.80;;;3.58;;
72319;SDS011;60269;52.502;16.732;2023-04-06T10:34:37;8.13;;;2.73;;
72319;SDS011;60269;52.502;16.732;2023-04-06T10:38:09;11.45;;;3.20;;
72319;SDS011;60269;52.502;16.732;2023-04-06T10:41:46;8.50;;;3.00;;
72319;SDS011;60269;52.502;16.732;2023-04-06T10:45:21;11.53;;;3.40;;
72319;SDS011;60269;52.502;16.732;2023-04-06T10:48:54;7.97;;;3.47;;
72319;SDS011;60269;52.502;16.732;2023-04-06T10:52:27;8.48;;;3.15;;
72319;SDS011;60269;52.502;16.732;2023-04-06T10:55:59;8.50;;;3.30;;
72319;SDS011;60269;52.502;16.732;2023-04-06T10:59:32;8.40;;;3.57;;
72319;SDS011;60269;52.502;16.732;2023-04-06T11:03:05;8.40;;;3.47;;
72319;SDS011;60269;52.502;16.732;2023-04-06T11:06:37;9.43;;;3.30;;
72319;SDS011;60269;52.502;16.732;2023-04-06T11:10:10;9.30;;;3.70;;
72319;SDS011;60269;52.502;16.732;2023-04-06T11:13:50;9.60;;;3.30;;
72319;SDS011;60269;52.502;16.732;2023-04-06T11:17:30;11.10;;;3.67;;
72319;SDS011;60269;52.502;16.732;2023-04-06T11:21:03;12.02;;;3.55;;
72319;SDS011;60269;52.502;16.732;2023-04-06T11:24:35;10.18;;;3.63;;
72319;SDS011;60269;52.502;16.732;2023-04-06T11:28:07;8.37;;;3.30;;
72319;SDS011;60269;52.502;16.732;2023-04-06T11:31:40;12.97;;;3.60;;
72319;SDS011;60269;52.502;16.732;2023-04-06T11:35:21;10.57;;;3.45;;
72319;SDS011;60269;52.502;16.732;2023-04-06T11:38:55;8.52;;;3.47;;
72319;SDS011;60269;52.502;16.732;2023-04-06T11:42:28;8.07;;;3.63;;
72319;SDS011;60269;52.502;16.732;2023-04-06T11:46:02;8.23;;;3.87;;
72319;SDS011;60269;52.502;16.732;2023-04-06T11:49:39;9.50;;;3.70;;
72319;SDS011;60269;52.502;16.732;2023-04-06T11:53:12;8.38;;;3.00;;
72319;SDS011;60269;52.502;16.732;2023-04-06T11:56:45;11.10;;;3.63;;
72319;SDS011;60269;52.502;16.732;2023-04-06T12:00:18;8.33;;;3.33;;
72319;SDS011;60269;52.502;16.732;2023-04-06T12:03:50;8.30;;;2.83;;
72319;SDS011;60269;52.502;16.732;2023-04-06T12:07:23;8.52;;;2.80;;
72319;SDS011;60269;52.502;16.732;2023-04-06T12:10:55;7.27;;;3.40;;
72319;SDS011;60269;52.502;16.732;2023-04-06T12:14:27;8.57;;;3.60;;
72319;SDS011;60269;52.502;16.732;2023-04-06T12:17:59;9.77;;;4.03;;
72319;SDS011;60269;52.502;16.732;2023-04-06T12:21:31;8.68;;;3.67;;
72319;SDS011;60269;52.502;16.732;2023-04-06T12:25:03;9.07;;;3.85;;
72319;SDS011;60269;52.502;16.732;2023-04-06T12:28:36;8.47;;;3.90;;
72319;SDS011;60269;52.502;16.732;2023-04-06T12:32:08;7.57;;;3.58;;
72319;SDS011;60269;52.502;16.732;2023-04-06T12:35:40;10.10;;;4.07;;
72319;SDS011;60269;52.502;16.732;2023-04-06T12:39:12;8.30;;;3.53;;
72319;SDS011;60269;52.502;16.732;2023-04-06T12:42:44;9.00;;;4.70;;
72319;SDS011;60269;52.502;16.732;2023-04-06T12:46:17;9.93;;;4.57;;
72319;SDS011;60269;52.502;16.732;2023-04-06T12:49:50;9.50;;;4.30;;
72319;SDS011;60269;52.502;16.732;2023-04-06T12:53:22;9.82;;;4.90;;
72319;SDS011;60269;52.502;16.732;2023-04-06T12:56:54;10.00;;;4.53;;
72319;SDS011;60269;52.502;16.732;2023-04-06T13:00:28;10.27;;;4.53;;
72319;SDS011;60269;52.502;16.732;2023-04-06T13:04:00;9.77;;;3.88;;
72319;SDS011;60269;52.502;16.732;2023-04-06T13:07:32;10.00;;;5.10;;
72319;SDS011;60269;52.502;16.732;2023-04-06T13:11:04;13.30;;;4.47;;
72319;SDS011;60269;52.502;16.732;2023-04-06T13:14:40;9.83;;;4.27;;
72319;SDS011;60269;52.502;16.732;2023-04-06T13:18:11;10.35;;;3.85;;
72319;SDS011;60269;52.502;16.732;2023-04-06T13:21:44;7.95;;;3.78;;
72319;SDS011;60269;52.502;16.732;2023-04-06T13:25:16;7.85;;;3.60;;
72319;SDS011;60269;52.502;16.732;2023-04-06T13:28:48;9.93;;;4.50;;
72319;SDS011;60269;52.502;16.732;2023-04-06T13:32:21;7.82;;;3.25;;
72319;SDS011;60269;52.502;16.732;2023-04-06T13:35:53;8.52;;;4.15;;
72319;SDS011;60269;52.502;16.732;2023-04-06T13:39:25;9.85;;;3.72;;
72319;SDS011;60269;52.502;16.732;2023-04-06T13:42:57;9.80;;;4.43;;
72319;SDS011;60269;52.502;16.732;2023-04-06T13:46:29;8.48;;;3.85;;
72319;SDS011;60269;52.502;16.732;2023-04-06T13:50:01;8.57;;;4.05;;
72319;SDS011;60269;52.502;16.732;2023-04-06T13:53:34;9.83;;;4.07;;
72319;SDS011;60269;52.502;16.732;2023-04-06T13:57:06;13.00;;;4.20;;
72319;SDS011;60269;52.502;16.732;2023-04-06T14:00:39;11.85;;;4.10;;
72319;SDS011;60269;52.502;16.732;2023-04-06T14:04:10;8.60;;;4.32;;
72319;SDS011;60269;52.502;16.732;2023-04-06T14:07:43;10.90;;;4.77;;
72319;SDS011;60269;52.502;16.732;2023-04-06T14:11:14;9.13;;;4.23;;
72319;SDS011;60269;52.502;16.732;2023-04-06T14:14:48;10.07;;;4.70;;
72319;SDS011;60269;52.502;16.732;2023-04-06T14:18:20;10.93;;;4.60;;
72319;SDS011;60269;52.502;16.732;2023-04-06T14:21:53;12.20;;;4.75;;
72319;SDS011;60269;52.502;16.732;2023-04-06T14:25:25;13.57;;;4.40;;
72319;SDS011;60269;52.502;16.732;2023-04-06T14:28:58;10.13;;;4.00;;
72319;SDS011;60269;52.502;16.732;2023-04-06T14:32:31;10.60;;;3.90;;
72319;SDS011;60269;52.502;16.732;2023-04-06T14:36:04;10.10;;;4.33;;
72319;SDS011;60269;52.502;16.732;2023-04-06T14:39:37;9.37;;;4.30;;
72319;SDS011;60269;52.502;16.732;2023-04-06T14:43:09;8.80;;;4.05;;
72319;SDS011;60269;52.502;16.732;2023-04-06T14:46:41;8.45;;;3.42;;
72319;SDS011;60269;52.502;16.732;2023-04-06T14:50:13;8.13;;;3.78;;
72319;SDS011;60269;52.502;16.732;2023-04-06T14:53:45;9.53;;;3.87;;
72319;SDS011;60269;52.502;16.732;2023-04-06T14:57:18;8.38;;;3.58;;
72319;SDS011;60269;52.502;16.732;2023-04-06T15:00:54;8.50;;;3.50;;
72319;SDS011;60269;52.502;16.732;2023-04-06T15:04:28;12.77;;;4.05;;
72319;SDS011;60269;52.502;16.732;2023-04-06T15:08:00;9.47;;;3.17;;
72319;SDS011;60269;52.502;16.732;2023-04-06T15:11:32;9.25;;;3.45;;
72319;SDS011;60269;52.502;16.732;2023-04-06T15:15:05;12.65;;;4.65;;
72319;SDS011;60269;52.502;16.732;2023-04-06T15:18:37;14.73;;;3.87;;
72319;SDS011;60269;52.502;16.732;2023-04-06T15:22:09;9.83;;;3.43;;
72319;SDS011;60269;52.502;16.732;2023-04-06T15:25:42;8.52;;;3.15;;
72319;SDS011;60269;52.502;16.732;2023-04-06T15:29:14;9.45;;;3.40;;
72319;SDS011;60269;52.502;16.732;2023-04-06T15:32:54;11.50;;;3.83;;
72319;SDS011;60269;52.502;16.732;2023-04-06T15:36:29;13.57;;;3.93;;
72319;SDS011;60269;52.502;16.732;2023-04-06T15:40:01;12.77;;;4.10;;
72319;SDS011;60269;52.502;16.732;2023-04-06T15:43:33;11.57;;;4.07;;
72319;SDS011;60269;52.502;16.732;2023-04-06T15:47:06;8.18;;;3.33;;
72319;SDS011;60269;52.502;16.732;2023-04-06T15:50:37;12.73;;;4.87;;
72319;SDS011;60269;52.502;16.732;2023-04-06T15:54:09;9.48;;;3.55;;
72319;SDS011;60269;52.502;16.732;2023-04-06T15:57:41;10.15;;;4.75;;
72319;SDS011;60269;52.502;16.732;2023-04-06T16:01:16;10.27;;;4.32;;
72319;SDS011;60269;52.502;16.732;2023-04-06T16:04:57;13.97;;;4.83;;
72319;SDS011;60269;52.502;16.732;2023-04-06T16:08:29;14.98;;;5.32;;
72319;SDS011;60269;52.502;16.732;2023-04-06T16:12:01;17.95;;;4.68;;
72319;SDS011;60269;52.502;16.732;2023-04-06T16:15:33;12.87;;;4.73;;
72319;SDS011;60269;52.502;16.732;2023-04-06T16:19:06;14.13;;;5.23;;
72319;SDS011;60269;52.502;16.732;2023-04-06T16:22:38;12.65;;;5.22;;
72319;SDS011;60269;52.502;16.732;2023-04-06T16:26:10;21.75;;;5.88;;
72319;SDS011;60269;52.502;16.732;2023-04-06T16:29:46;14.20;;;6.10;;
72319;SDS011;60269;52.502;16.732;2023-04-06T16:33:18;12.77;;;4.90;;
72319;SDS011;60269;52.502;16.732;2023-04-06T16:36:50;13.73;;;4.70;;
72319;SDS011;60269;52.502;16.732;2023-04-06T16:40:22;10.95;;;4.18;;
72319;SDS011;60269;52.502;16.732;2023-04-06T16:43:54;13.60;;;4.77;;
72319;SDS011;60269;52.502;16.732;2023-04-06T16:47:27;12.17;;;4.63;;
72319;SDS011;60269;52.502;16.732;2023-04-06T16:51:04;15.57;;;5.53;;
72319;SDS011;60269;52.502;16.732;2023-04-06T16:54:36;16.00;;;5.45;;
72319;SDS011;60269;52.502;16.732;2023-04-06T16:58:08;12.43;;;4.97;;
72319;SDS011;60269;52.502;16.732;2023-04-06T17:01:40;14.60;;;5.87;;
72319;SDS011;60269;52.502;16.732;2023-04-06T17:05:12;13.32;;;5.10;;
72319;SDS011;60269;52.502;16.732;2023-04-06T17:08:45;16.92;;;5.50;;
72319;SDS011;60269;52.502;16.732;2023-04-06T17:12:18;18.17;;;6.30;;
72319;SDS011;60269;52.502;16.732;2023-04-06T17:15:50;26.17;;;8.80;;
72319;SDS011;60269;52.502;16.732;2023-04-06T17:19:22;25.25;;;8.20;;
72319;SDS011;60269;52.502;16.732;2023-04-06T17:22:55;32.30;;;13.85;;
72319;SDS011;60269;52.502;16.732;2023-04-06T17:26:27;32.93;;;13.17;;
72319;SDS011;60269;52.502;16.732;2023-04-06T17:29:59;31.67;;;12.20;;
72319;SDS011;60269;52.502;16.732;2023-04-06T17:33:37;33.08;;;11.45;;
72319;SDS011;60269;52.502;16.732;2023-04-06T17:37:10;25.63;;;9.23;;
72319;SDS011;60269;52.502;16.732;2023-04-06T17:40:42;20.77;;;8.73;;
72319;SDS011;60269;52.502;16.732;2023-04-06T17:44:13;23.08;;;9.60;;
72319;SDS011;60269;52.502;16.732;2023-04-06T17:47:46;19.77;;;9.07;;
72319;SDS011;60269;52.502;16.732;2023-04-06T17:51:17;26.10;;;9.50;;
72319;SDS011;60269;52.502;16.732;2023-04-06T17:54:51;23.63;;;8.37;;
72319;SDS011;60269;52.502;16.732;2023-04-06T17:58:23;22.63;;;8.88;;
72319;SDS011;60269;52.502;16.732;2023-04-06T18:01:55;20.52;;;9.07;;
72319;SDS011;60269;52.502;16.732;2023-04-06T18:05:27;26.10;;;9.67;;
72319;SDS011;60269;52.502;16.732;2023-04-06T18:09:00;19.20;;;8.80;;
72319;SDS011;60269;52.502;16.732;2023-04-06T18:12:34;18.48;;;7.93;;
72319;SDS011;60269;52.502;16.732;2023-04-06T18:16:06;19.73;;;8.13;;
72319;SDS011;60269;52.502;16.732;2023-04-06T18:19:38;17.03;;;7.30;;
72319;SDS011;60269;52.502;16.732;2023-04-06T18:23:10;25.65;;;7.78;;
72319;SDS011;60269;52.502;16.732;2023-04-06T18:26:42;23.92;;;9.77;;
72319;SDS011;60269;52.502;16.732;2023-04-06T18:30:14;31.10;;;10.83;;
72319;SDS011;60269;52.502;16.732;2023-04-06T18:33:48;40.38;;;15.95;;
72319;SDS011;60269;52.502;16.732;2023-04-06T18:37:23;58.13;;;19.75;;
72319;SDS011;60269;52.502;16.732;2023-04-06T18:40:57;58.07;;;18.87;;
72319;SDS011;60269;52.502;16.732;2023-04-06T18:44:30;56.92;;;20.00;;
72319;SDS011;60269;52.502;16.732;2023-04-06T18:48:02;49.65;;;17.75;;
72319;SDS011;60269;52.502;16.732;2023-04-06T18:51:35;49.08;;;17.40;;
72319;SDS011;60269;52.502;16.732;2023-04-06T18:55:07;59.77;;;21.40;;
72319;SDS011;60269;52.502;16.732;2023-04-06T18:58:40;50.95;;;17.90;;
72319;SDS011;60269;52.502;16.732;2023-04-06T19:02:13;33.13;;;11.95;;
72319;SDS011;60269;52.502;16.732;2023-04-06T19:05:45;31.87;;;13.60;;
72319;SDS011;60269;52.502;16.732;2023-04-06T19:09:17;39.25;;;16.33;;
72319;SDS011;60269;52.502;16.732;2023-04-06T19:12:50;41.72;;;17.20;;
72319;SDS011;60269;52.502;16.732;2023-04-06T19:16:22;35.17;;;16.47;;
72319;SDS011;60269;52.502;16.732;2023-04-06T19:19:54;48.80;;;21.50;;
72319;SDS011;60269;52.502;16.732;2023-04-06T19:23:28;41.38;;;19.98;;
72319;SDS011;60269;52.502;16.732;2023-04-06T19:27:01;50.95;;;19.75;;
72319;SDS011;60269;52.502;16.732;2023-04-06T19:30:33;34.37;;;16.40;;
72319;SDS011;60269;52.502;16.732;2023-04-06T19:34:06;37.55;;;14.43;;
72319;SDS011;60269;52.502;16.732;2023-04-06T19:37:38;29.02;;;12.50;;
72319;SDS011;60269;52.502;16.732;2023-04-06T19:41:10;31.37;;;11.03;;
72319;SDS011;60269;52.502;16.732;2023-04-06T19:44:43;25.37;;;10.50;;
72319;SDS011;60269;52.502;16.732;2023-04-06T19:48:15;27.98;;;12.07;;
72319;SDS011;60269;52.502;16.732;2023-04-06T19:51:47;30.83;;;11.23;;
72319;SDS011;60269;52.502;16.732;2023-04-06T19:55:19;24.73;;;11.00;;
72319;SDS011;60269;52.502;16.732;2023-04-06T19:58:51;27.27;;;10.88;;
72319;SDS011;60269;52.502;16.732;2023-04-06T20:02:24;33.03;;;11.77;;
72319;SDS011;60269;52.502;16.732;2023-04-06T20:05:56;27.70;;;11.10;;
72319;SDS011;60269;52.502;16.732;2023-04-06T20:09:28;24.50;;;11.40;;
72319;SDS011;60269;52.502;16.732;2023-04-06T20:13:00;28.90;;;11.60;;
72319;SDS011;60269;52.502;16.732;2023-04-06T20:16:32;26.63;;;11.23;;
72319;SDS011;60269;52.502;16.732;2023-04-06T20:20:05;29.77;;;12.27;;
72319;SDS011;60269;52.502;16.732;2023-04-06T20:23:38;22.80;;;10.57;;
72319;SDS011;60269;52.502;16.732;2023-04-06T20:27:09;33.00;;;12.93;;
72319;SDS011;60269;52.502;16.732;2023-04-06T20:30:41;31.80;;;14.30;;
72319;SDS011;60269;52.502;16.732;2023-04-06T20:34:13;34.93;;;14.27;;
72319;SDS011;60269;52.502;16.732;2023-04-06T20:37:46;35.35;;;14.20;;
72319;SDS011;60269;52.502;16.732;2023-04-06T20:41:18;35.45;;;14.18;;
72319;SDS011;60269;52.502;16.732;2023-04-06T20:44:52;30.75;;;13.48;;
72319;SDS011;60269;52.502;16.732;2023-04-06T20:48:24;37.40;;;15.27;;